sensor_id;sensor_type;location;lat;lon;timestamp;P1;durP1;ratioP1;P2;durP2;ratioP2
18879;SDS011;9572;52.378;13.404;2022-12-26T00:01:24;7.10;;;4.30;;
18879;SDS011;9572;52.378;13.404;2022-12-26T00:03:53;7.63;;;4.40;;
18879;SDS011;9572;52.378;13.404;2022-12-26T00:06:21;4.97;;;3.90;;
18879;SDS011;9572;52.378;13.404;2022-12-26T00:08:52;5.20;;;3.70;;
18879;SDS011;9572;52.378;13.404;2022-12-26T00:11:19;6.53;;;3.90;;
18879;SDS011;9572;52.378;13.404;2022-12-26T00:13:52;6.23;;;4.17;;
18879;SDS011;9572;52.378;13.404;2022-12-26T00:16:19;5.70;;;3.70;;
18879;SDS011;9572;52.378;13.404;2022-12-26T00:18:47;5.43;;;4.00;;
18879;SDS011;9572;52.378;13.404;2022-12-26T00:21:15;4.63;;;3.70;;
18879;SDS011;9572;52.378;13.404;2022-12-26T00:23:44;6.23;;;3.90;;
18879;SDS011;9572;52.378;13.404;2022-12-26T00:26:13;5.90;;;3.77;;
18879;SDS011;9572;52.378;13.404;2022-12-26T00:28:43;6.50;;;4.10;;
18879;SDS011;9572;52.378;13.404;2022-12-26T00:31:11;7.97;;;4.13;;
18879;SDS011;9572;52.378;13.404;2022-12-26T00:33:39;7.68;;;4.30;;
18879;SDS011;9572;52.378;13.404;2022-12-26T00:36:07;7.95;;;3.72;;
18879;SDS011;9572;52.378;13.404;2022-12-26T00:38:37;6.30;;;3.57;;
18879;SDS011;9572;52.378;13.404;2022-12-26T00:41:05;5.80;;;3.87;;
18879;SDS011;9572;52.378;13.404;2022-12-26T00:43:35;5.80;;;3.90;;
18879;SDS011;9572;52.378;13.404;2022-12-26T00:46:02;3.92;;;3.47;;
18879;SDS011;9572;52.378;13.404;2022-12-26T00:48:30;6.17;;;3.37;;
18879;SDS011;9572;52.378;13.404;2022-12-26T00:50:57;5.88;;;3.75;;
18879;SDS011;9572;52.378;13.404;2022-12-26T00:53:25;7.40;;;3.90;;
18879;SDS011;9572;52.378;13.404;2022-12-26T00:55:52;5.47;;;3.90;;
18879;SDS011;9572;52.378;13.404;2022-12-26T00:58:20;5.35;;;3.60;;
18879;SDS011;9572;52.378;13.404;2022-12-26T01:00:48;4.13;;;3.50;;
18879;SDS011;9572;52.378;13.404;2022-12-26T01:03:16;5.93;;;3.97;;
18879;SDS011;9572;52.378;13.404;2022-12-26T01:05:44;5.50;;;3.70;;
18879;SDS011;9572;52.378;13.404;2022-12-26T01:08:12;8.73;;;3.60;;
18879;SDS011;9572;52.378;13.404;2022-12-26T01:10:39;4.40;;;3.80;;
18879;SDS011;9572;52.378;13.404;2022-12-26T01:13:06;8.73;;;3.40;;
18879;SDS011;9572;52.378;13.404;2022-12-26T01:15:33;6.57;;;3.50;;
18879;SDS011;9572;52.378;13.404;2022-12-26T01:18:02;10.00;;;3.80;;
18879;SDS011;9572;52.378;13.404;2022-12-26T01:20:29;5.27;;;3.27;;
18879;SDS011;9572;52.378;13.404;2022-12-26T01:22:56;6.27;;;3.70;;
18879;SDS011;9572;52.378;13.404;2022-12-26T01:25:23;6.40;;;3.20;;
18879;SDS011;9572;52.378;13.404;2022-12-26T01:27:50;7.90;;;3.43;;
18879;SDS011;9572;52.378;13.404;2022-12-26T01:30:17;6.20;;;3.40;;
18879;SDS011;9572;52.378;13.404;2022-12-26T01:32:44;6.00;;;3.33;;
18879;SDS011;9572;52.378;13.404;2022-12-26T01:35:13;4.57;;;3.67;;
18879;SDS011;9572;52.378;13.404;2022-12-26T01:37:40;4.23;;;3.23;;
18879;SDS011;9572;52.378;13.404;2022-12-26T01:40:07;5.10;;;3.50;;
18879;SDS011;9572;52.378;13.404;2022-12-26T01:42:37;7.77;;;3.83;;
18879;SDS011;9572;52.378;13.404;2022-12-26T01:45:08;5.03;;;3.20;;
18879;SDS011;9572;52.378;13.404;2022-12-26T01:47:48;4.03;;;3.33;;
18879;SDS011;9572;52.378;13.404;2022-12-26T01:50:23;7.75;;;3.58;;
18879;SDS011;9572;52.378;13.404;2022-12-26T01:52:54;4.87;;;3.50;;
18879;SDS011;9572;52.378;13.404;2022-12-26T01:55:24;6.10;;;3.30;;
18879;SDS011;9572;52.378;13.404;2022-12-26T01:57:54;4.93;;;3.50;;
18879;SDS011;9572;52.378;13.404;2022-12-26T02:00:24;3.50;;;3.20;;
18879;SDS011;9572;52.378;13.404;2022-12-26T02:02:51;5.20;;;3.88;;
18879;SDS011;9572;52.378;13.404;2022-12-26T02:05:39;4.20;;;3.45;;
18879;SDS011;9572;52.378;13.404;2022-12-26T02:08:09;3.93;;;3.20;;
18879;SDS011;9572;52.378;13.404;2022-12-26T02:10:39;4.35;;;3.50;;
18879;SDS011;9572;52.378;13.404;2022-12-26T02:13:12;6.13;;;3.40;;
18879;SDS011;9572;52.378;13.404;2022-12-26T02:15:40;5.67;;;3.43;;
18879;SDS011;9572;52.378;13.404;2022-12-26T02:18:07;5.00;;;3.70;;
18879;SDS011;9572;52.378;13.404;2022-12-26T02:23:30;6.37;;;3.50;;
18879;SDS011;9572;52.378;13.404;2022-12-26T02:26:30;6.10;;;3.67;;
18879;SDS011;9572;52.378;13.404;2022-12-26T02:29:26;4.00;;;2.83;;
18879;SDS011;9572;52.378;13.404;2022-12-26T02:32:17;4.17;;;3.43;;
18879;SDS011;9572;52.378;13.404;2022-12-26T02:34:52;5.73;;;3.43;;
18879;SDS011;9572;52.378;13.404;2022-12-26T02:37:32;7.23;;;3.57;;
18879;SDS011;9572;52.378;13.404;2022-12-26T02:40:18;6.03;;;3.40;;
18879;SDS011;9572;52.378;13.404;2022-12-26T02:43:09;4.77;;;3.20;;
18879;SDS011;9572;52.378;13.404;2022-12-26T02:45:42;5.07;;;3.57;;
18879;SDS011;9572;52.378;13.404;2022-12-26T02:48:35;6.23;;;3.43;;
18879;SDS011;9572;52.378;13.404;2022-12-26T02:51:10;4.30;;;3.57;;
18879;SDS011;9572;52.378;13.404;2022-12-26T02:54:05;5.28;;;3.30;;
18879;SDS011;9572;52.378;13.404;2022-12-26T02:57:00;5.77;;;3.40;;
18879;SDS011;9572;52.378;13.404;2022-12-26T02:59:47;5.03;;;3.60;;
18879;SDS011;9572;52.378;13.404;2022-12-26T03:02:37;4.97;;;3.33;;
18879;SDS011;9572;52.378;13.404;2022-12-26T03:05:28;6.53;;;3.40;;
18879;SDS011;9572;52.378;13.404;2022-12-26T03:08:17;4.10;;;3.63;;
18879;SDS011;9572;52.378;13.404;2022-12-26T03:11:05;6.43;;;3.57;;
18879;SDS011;9572;52.378;13.404;2022-12-26T03:13:49;5.22;;;3.28;;
18879;SDS011;9572;52.378;13.404;2022-12-26T03:16:17;5.47;;;3.53;;
18879;SDS011;9572;52.378;13.404;2022-12-26T03:19:04;6.60;;;3.50;;
18879;SDS011;9572;52.378;13.404;2022-12-26T03:21:35;4.87;;;3.17;;
18879;SDS011;9572;52.378;13.404;2022-12-26T03:24:06;4.57;;;3.40;;
18879;SDS011;9572;52.378;13.404;2022-12-26T03:26:36;7.18;;;3.65;;
18879;SDS011;9572;52.378;13.404;2022-12-26T03:29:08;8.52;;;4.35;;
18879;SDS011;9572;52.378;13.404;2022-12-26T03:31:54;6.50;;;3.58;;
18879;SDS011;9572;52.378;13.404;2022-12-26T03:34:21;7.25;;;3.40;;
18879;SDS011;9572;52.378;13.404;2022-12-26T03:39:47;4.93;;;3.60;;
18879;SDS011;9572;52.378;13.404;2022-12-26T03:42:40;7.13;;;4.17;;
18879;SDS011;9572;52.378;13.404;2022-12-26T03:45:32;5.93;;;3.50;;
18879;SDS011;9572;52.378;13.404;2022-12-26T03:48:25;5.63;;;4.07;;
18879;SDS011;9572;52.378;13.404;2022-12-26T03:51:14;8.00;;;3.90;;
18879;SDS011;9572;52.378;13.404;2022-12-26T03:54:04;6.70;;;3.80;;
18879;SDS011;9572;52.378;13.404;2022-12-26T03:56:54;6.97;;;4.30;;
18879;SDS011;9572;52.378;13.404;2022-12-26T03:59:44;8.70;;;4.80;;
18879;SDS011;9572;52.378;13.404;2022-12-26T04:02:33;4.70;;;3.77;;
18879;SDS011;9572;52.378;13.404;2022-12-26T04:05:20;8.85;;;4.07;;
18879;SDS011;9572;52.378;13.404;2022-12-26T04:08:05;8.40;;;4.13;;
18879;SDS011;9572;52.378;13.404;2022-12-26T04:10:57;8.10;;;4.53;;
18879;SDS011;9572;52.378;13.404;2022-12-26T04:13:45;4.70;;;3.50;;
18879;SDS011;9572;52.378;13.404;2022-12-26T04:16:38;7.95;;;3.45;;
18879;SDS011;9572;52.378;13.404;2022-12-26T04:19:31;4.25;;;3.70;;
18879;SDS011;9572;52.378;13.404;2022-12-26T04:22:19;6.45;;;3.80;;
18879;SDS011;9572;52.378;13.404;2022-12-26T04:25:08;4.40;;;3.43;;
18879;SDS011;9572;52.378;13.404;2022-12-26T04:27:58;4.38;;;3.72;;
18879;SDS011;9572;52.378;13.404;2022-12-26T04:30:44;4.88;;;3.97;;
18879;SDS011;9572;52.378;13.404;2022-12-26T04:33:35;4.65;;;3.65;;
18879;SDS011;9572;52.378;13.404;2022-12-26T04:36:26;6.13;;;3.70;;
18879;SDS011;9572;52.378;13.404;2022-12-26T04:39:16;4.65;;;4.03;;
18879;SDS011;9572;52.378;13.404;2022-12-26T04:42:04;6.90;;;3.65;;
18879;SDS011;9572;52.378;13.404;2022-12-26T04:44:51;7.00;;;4.27;;
18879;SDS011;9572;52.378;13.404;2022-12-26T04:47:19;5.50;;;4.20;;
18879;SDS011;9572;52.378;13.404;2022-12-26T04:49:46;5.15;;;3.55;;
18879;SDS011;9572;52.378;13.404;2022-12-26T04:52:30;6.80;;;3.88;;
18879;SDS011;9572;52.378;13.404;2022-12-26T04:55:11;6.97;;;4.35;;
18879;SDS011;9572;52.378;13.404;2022-12-26T04:57:38;8.93;;;4.13;;
18879;SDS011;9572;52.378;13.404;2022-12-26T05:00:07;4.80;;;3.88;;
18879;SDS011;9572;52.378;13.404;2022-12-26T05:02:34;4.63;;;3.40;;
18879;SDS011;9572;52.378;13.404;2022-12-26T05:05:18;5.15;;;3.78;;
18879;SDS011;9572;52.378;13.404;2022-12-26T05:08:02;6.32;;;4.07;;
18879;SDS011;9572;52.378;13.404;2022-12-26T05:10:47;4.17;;;3.53;;
18879;SDS011;9572;52.378;13.404;2022-12-26T05:13:14;4.95;;;3.75;;
18879;SDS011;9572;52.378;13.404;2022-12-26T05:15:42;6.20;;;4.13;;
18879;SDS011;9572;52.378;13.404;2022-12-26T05:18:27;4.60;;;3.90;;
18879;SDS011;9572;52.378;13.404;2022-12-26T05:21:11;6.13;;;3.20;;
18879;SDS011;9572;52.378;13.404;2022-12-26T05:23:56;8.10;;;4.47;;
18879;SDS011;9572;52.378;13.404;2022-12-26T05:26:41;5.93;;;4.30;;
18879;SDS011;9572;52.378;13.404;2022-12-26T05:29:25;8.20;;;5.32;;
18879;SDS011;9572;52.378;13.404;2022-12-26T05:31:54;8.35;;;4.78;;
18879;SDS011;9572;52.378;13.404;2022-12-26T05:34:20;8.90;;;4.82;;
18879;SDS011;9572;52.378;13.404;2022-12-26T05:36:47;5.10;;;3.67;;
18879;SDS011;9572;52.378;13.404;2022-12-26T05:39:15;4.68;;;3.53;;
18879;SDS011;9572;52.378;13.404;2022-12-26T05:41:42;4.15;;;3.20;;
18879;SDS011;9572;52.378;13.404;2022-12-26T05:44:09;4.43;;;3.30;;
18879;SDS011;9572;52.378;13.404;2022-12-26T05:46:37;4.15;;;3.10;;
18879;SDS011;9572;52.378;13.404;2022-12-26T05:49:05;4.75;;;3.70;;
18879;SDS011;9572;52.378;13.404;2022-12-26T05:51:33;3.60;;;2.92;;
18879;SDS011;9572;52.378;13.404;2022-12-26T05:54:00;3.97;;;3.17;;
18879;SDS011;9572;52.378;13.404;2022-12-26T05:56:27;3.92;;;3.00;;
18879;SDS011;9572;52.378;13.404;2022-12-26T05:58:54;5.40;;;3.15;;
18879;SDS011;9572;52.378;13.404;2022-12-26T06:01:23;3.70;;;2.78;;
18879;SDS011;9572;52.378;13.404;2022-12-26T06:03:52;4.00;;;2.90;;
18879;SDS011;9572;52.378;13.404;2022-12-26T06:06:22;6.17;;;3.00;;
18879;SDS011;9572;52.378;13.404;2022-12-26T06:08:50;5.82;;;2.80;;
18879;SDS011;9572;52.378;13.404;2022-12-26T06:11:18;6.18;;;3.00;;
18879;SDS011;9572;52.378;13.404;2022-12-26T06:13:45;4.07;;;2.90;;
18879;SDS011;9572;52.378;13.404;2022-12-26T06:16:13;4.60;;;3.28;;
18879;SDS011;9572;52.378;13.404;2022-12-26T06:18:42;6.10;;;3.17;;
18879;SDS011;9572;52.378;13.404;2022-12-26T06:21:10;4.20;;;2.70;;
18879;SDS011;9572;52.378;13.404;2022-12-26T06:23:39;5.10;;;2.88;;
18879;SDS011;9572;52.378;13.404;2022-12-26T06:26:07;6.43;;;2.90;;
18879;SDS011;9572;52.378;13.404;2022-12-26T06:28:36;8.77;;;3.03;;
18879;SDS011;9572;52.378;13.404;2022-12-26T06:31:04;6.47;;;2.97;;
18879;SDS011;9572;52.378;13.404;2022-12-26T06:33:33;4.20;;;2.78;;
18879;SDS011;9572;52.378;13.404;2022-12-26T06:36:03;3.70;;;2.60;;
18879;SDS011;9572;52.378;13.404;2022-12-26T06:38:31;4.28;;;2.88;;
18879;SDS011;9572;52.378;13.404;2022-12-26T06:40:59;4.80;;;2.85;;
18879;SDS011;9572;52.378;13.404;2022-12-26T06:43:27;3.78;;;2.60;;
18879;SDS011;9572;52.378;13.404;2022-12-26T06:45:54;4.57;;;3.08;;
18879;SDS011;9572;52.378;13.404;2022-12-26T06:48:21;4.50;;;2.67;;
18879;SDS011;9572;52.378;13.404;2022-12-26T06:50:48;5.80;;;3.13;;
18879;SDS011;9572;52.378;13.404;2022-12-26T06:53:15;5.32;;;3.25;;
18879;SDS011;9572;52.378;13.404;2022-12-26T06:55:41;3.85;;;2.97;;
18879;SDS011;9572;52.378;13.404;2022-12-26T06:58:10;3.30;;;2.58;;
18879;SDS011;9572;52.378;13.404;2022-12-26T07:00:37;4.80;;;2.40;;
18879;SDS011;9572;52.378;13.404;2022-12-26T07:03:04;6.00;;;2.70;;
18879;SDS011;9572;52.378;13.404;2022-12-26T07:05:30;3.15;;;2.85;;
18879;SDS011;9572;52.378;13.404;2022-12-26T07:08:00;3.78;;;3.10;;
18879;SDS011;9572;52.378;13.404;2022-12-26T07:10:27;3.22;;;2.70;;
18879;SDS011;9572;52.378;13.404;2022-12-26T07:12:54;3.97;;;2.67;;
18879;SDS011;9572;52.378;13.404;2022-12-26T07:15:22;3.50;;;2.50;;
18879;SDS011;9572;52.378;13.404;2022-12-26T07:17:49;3.08;;;2.70;;
18879;SDS011;9572;52.378;13.404;2022-12-26T07:20:17;6.93;;;2.47;;
18879;SDS011;9572;52.378;13.404;2022-12-26T07:22:44;4.03;;;2.70;;
18879;SDS011;9572;52.378;13.404;2022-12-26T07:25:11;3.38;;;2.40;;
18879;SDS011;9572;52.378;13.404;2022-12-26T07:27:38;3.40;;;2.13;;
18879;SDS011;9572;52.378;13.404;2022-12-26T07:30:05;3.00;;;2.47;;
18879;SDS011;9572;52.378;13.404;2022-12-26T07:32:34;3.83;;;2.70;;
18879;SDS011;9572;52.378;13.404;2022-12-26T07:35:01;2.92;;;2.55;;
18879;SDS011;9572;52.378;13.404;2022-12-26T07:37:28;2.70;;;2.50;;
18879;SDS011;9572;52.378;13.404;2022-12-26T07:39:55;2.53;;;2.33;;
18879;SDS011;9572;52.378;13.404;2022-12-26T07:42:22;4.40;;;2.65;;
18879;SDS011;9572;52.378;13.404;2022-12-26T07:44:49;2.60;;;2.40;;
18879;SDS011;9572;52.378;13.404;2022-12-26T07:47:16;4.03;;;2.58;;
18879;SDS011;9572;52.378;13.404;2022-12-26T07:49:44;4.32;;;2.80;;
18879;SDS011;9572;52.378;13.404;2022-12-26T07:52:11;4.22;;;2.53;;
18879;SDS011;9572;52.378;13.404;2022-12-26T07:54:38;2.83;;;2.47;;
18879;SDS011;9572;52.378;13.404;2022-12-26T07:57:04;2.95;;;2.70;;
18879;SDS011;9572;52.378;13.404;2022-12-26T07:59:31;3.53;;;2.65;;
18879;SDS011;9572;52.378;13.404;2022-12-26T08:01:58;4.47;;;2.60;;
18879;SDS011;9572;52.378;13.404;2022-12-26T08:04:28;2.88;;;2.30;;
18879;SDS011;9572;52.378;13.404;2022-12-26T08:06:57;6.68;;;2.60;;
18879;SDS011;9572;52.378;13.404;2022-12-26T08:09:24;3.78;;;2.90;;
18879;SDS011;9572;52.378;13.404;2022-12-26T08:11:50;3.50;;;2.70;;
18879;SDS011;9572;52.378;13.404;2022-12-26T08:14:17;4.32;;;2.90;;
18879;SDS011;9572;52.378;13.404;2022-12-26T08:16:44;3.88;;;2.65;;
18879;SDS011;9572;52.378;13.404;2022-12-26T08:19:11;3.58;;;2.60;;
18879;SDS011;9572;52.378;13.404;2022-12-26T08:21:38;3.75;;;2.50;;
18879;SDS011;9572;52.378;13.404;2022-12-26T08:24:06;3.53;;;2.35;;
18879;SDS011;9572;52.378;13.404;2022-12-26T08:26:33;5.25;;;2.65;;
18879;SDS011;9572;52.378;13.404;2022-12-26T08:29:00;3.25;;;2.60;;
18879;SDS011;9572;52.378;13.404;2022-12-26T08:31:27;4.78;;;3.28;;
18879;SDS011;9572;52.378;13.404;2022-12-26T08:33:54;6.03;;;3.15;;
18879;SDS011;9572;52.378;13.404;2022-12-26T08:36:22;5.60;;;3.42;;
18879;SDS011;9572;52.378;13.404;2022-12-26T08:38:49;3.97;;;2.90;;
18879;SDS011;9572;52.378;13.404;2022-12-26T08:41:18;6.28;;;3.42;;
18879;SDS011;9572;52.378;13.404;2022-12-26T08:43:48;6.65;;;3.47;;
18879;SDS011;9572;52.378;13.404;2022-12-26T08:46:16;5.70;;;3.35;;
18879;SDS011;9572;52.378;13.404;2022-12-26T08:48:44;7.53;;;3.45;;
18879;SDS011;9572;52.378;13.404;2022-12-26T08:51:13;4.20;;;2.90;;
18879;SDS011;9572;52.378;13.404;2022-12-26T08:53:42;3.92;;;3.28;;
18879;SDS011;9572;52.378;13.404;2022-12-26T08:56:12;5.28;;;3.38;;
18879;SDS011;9572;52.378;13.404;2022-12-26T08:58:42;6.38;;;3.10;;
18879;SDS011;9572;52.378;13.404;2022-12-26T09:01:10;4.70;;;3.35;;
18879;SDS011;9572;52.378;13.404;2022-12-26T09:03:39;4.28;;;3.20;;
18879;SDS011;9572;52.378;13.404;2022-12-26T09:06:08;5.93;;;3.22;;
18879;SDS011;9572;52.378;13.404;2022-12-26T09:08:36;4.65;;;3.47;;
18879;SDS011;9572;52.378;13.404;2022-12-26T09:11:04;3.90;;;3.10;;
18879;SDS011;9572;52.378;13.404;2022-12-26T09:13:32;8.30;;;3.30;;
18879;SDS011;9572;52.378;13.404;2022-12-26T09:16:05;3.88;;;3.17;;
18879;SDS011;9572;52.378;13.404;2022-12-26T09:18:33;6.65;;;3.30;;
18879;SDS011;9572;52.378;13.404;2022-12-26T09:21:00;4.43;;;3.28;;
18879;SDS011;9572;52.378;13.404;2022-12-26T09:23:28;5.63;;;3.33;;
18879;SDS011;9572;52.378;13.404;2022-12-26T09:25:55;3.90;;;3.28;;
18879;SDS011;9572;52.378;13.404;2022-12-26T09:28:28;4.83;;;3.10;;
18879;SDS011;9572;52.378;13.404;2022-12-26T09:30:57;5.95;;;2.85;;
18879;SDS011;9572;52.378;13.404;2022-12-26T09:33:26;4.05;;;2.88;;
18879;SDS011;9572;52.378;13.404;2022-12-26T09:35:53;3.95;;;2.78;;
18879;SDS011;9572;52.378;13.404;2022-12-26T09:38:20;4.60;;;3.50;;
18879;SDS011;9572;52.378;13.404;2022-12-26T09:40:49;4.80;;;3.40;;
18879;SDS011;9572;52.378;13.404;2022-12-26T09:43:26;3.70;;;2.90;;
18879;SDS011;9572;52.378;13.404;2022-12-26T09:46:00;4.05;;;2.80;;
18879;SDS011;9572;52.378;13.404;2022-12-26T09:48:38;7.65;;;3.45;;
18879;SDS011;9572;52.378;13.404;2022-12-26T09:51:12;5.22;;;2.88;;
18879;SDS011;9572;52.378;13.404;2022-12-26T09:53:40;6.45;;;3.65;;
18879;SDS011;9572;52.378;13.404;2022-12-26T09:56:10;5.93;;;3.40;;
18879;SDS011;9572;52.378;13.404;2022-12-26T09:58:41;5.18;;;3.35;;
18879;SDS011;9572;52.378;13.404;2022-12-26T10:01:12;5.03;;;3.40;;
18879;SDS011;9572;52.378;13.404;2022-12-26T10:03:43;9.20;;;3.17;;
18879;SDS011;9572;52.378;13.404;2022-12-26T10:06:13;3.67;;;3.15;;
18879;SDS011;9572;52.378;13.404;2022-12-26T10:08:52;5.93;;;3.30;;
18879;SDS011;9572;52.378;13.404;2022-12-26T10:11:34;2.85;;;2.45;;
18879;SDS011;9572;52.378;13.404;2022-12-26T10:14:12;4.65;;;2.97;;
18879;SDS011;9572;52.378;13.404;2022-12-26T10:16:46;5.95;;;3.22;;
18879;SDS011;9572;52.378;13.404;2022-12-26T10:19:24;3.47;;;2.47;;
18879;SDS011;9572;52.378;13.404;2022-12-26T10:22:07;3.42;;;2.65;;
18879;SDS011;9572;52.378;13.404;2022-12-26T10:24:46;5.68;;;2.80;;
18879;SDS011;9572;52.378;13.404;2022-12-26T10:27:15;3.97;;;2.95;;
18879;SDS011;9572;52.378;13.404;2022-12-26T10:29:45;3.45;;;2.97;;
18879;SDS011;9572;52.378;13.404;2022-12-26T10:32:16;3.38;;;3.08;;
18879;SDS011;9572;52.378;13.404;2022-12-26T10:34:48;4.40;;;2.72;;
18879;SDS011;9572;52.378;13.404;2022-12-26T10:37:17;4.32;;;2.92;;
18879;SDS011;9572;52.378;13.404;2022-12-26T10:39:56;2.67;;;2.45;;
18879;SDS011;9572;52.378;13.404;2022-12-26T10:42:28;2.92;;;2.42;;
18879;SDS011;9572;52.378;13.404;2022-12-26T10:44:59;4.43;;;2.38;;
18879;SDS011;9572;52.378;13.404;2022-12-26T10:47:27;4.10;;;2.40;;
18879;SDS011;9572;52.378;13.404;2022-12-26T10:50:00;5.45;;;2.08;;
18879;SDS011;9572;52.378;13.404;2022-12-26T10:52:29;3.50;;;2.45;;
18879;SDS011;9572;52.378;13.404;2022-12-26T10:54:58;3.13;;;2.60;;
18879;SDS011;9572;52.378;13.404;2022-12-26T10:57:26;2.28;;;2.08;;
18879;SDS011;9572;52.378;13.404;2022-12-26T10:59:56;2.88;;;2.17;;
18879;SDS011;9572;52.378;13.404;2022-12-26T11:02:25;2.97;;;2.33;;
18879;SDS011;9572;52.378;13.404;2022-12-26T11:04:58;2.70;;;2.08;;
18879;SDS011;9572;52.378;13.404;2022-12-26T11:07:32;2.35;;;1.90;;
18879;SDS011;9572;52.378;13.404;2022-12-26T11:10:02;2.30;;;2.10;;
18879;SDS011;9572;52.378;13.404;2022-12-26T11:12:38;2.63;;;2.42;;
18879;SDS011;9572;52.378;13.404;2022-12-26T11:15:16;5.95;;;2.28;;
18879;SDS011;9572;52.378;13.404;2022-12-26T11:17:46;3.97;;;2.50;;
18879;SDS011;9572;52.378;13.404;2022-12-26T11:20:25;2.90;;;2.60;;
18879;SDS011;9572;52.378;13.404;2022-12-26T11:22:54;4.05;;;2.45;;
18879;SDS011;9572;52.378;13.404;2022-12-26T11:25:46;2.70;;;2.50;;
18879;SDS011;9572;52.378;13.404;2022-12-26T11:28:18;2.80;;;2.30;;
18879;SDS011;9572;52.378;13.404;2022-12-26T11:30:56;3.60;;;2.60;;
18879;SDS011;9572;52.378;13.404;2022-12-26T11:33:26;2.58;;;2.38;;
18879;SDS011;9572;52.378;13.404;2022-12-26T11:36:06;2.45;;;2.25;;
18879;SDS011;9572;52.378;13.404;2022-12-26T11:38:42;3.22;;;2.50;;
18879;SDS011;9572;52.378;13.404;2022-12-26T11:41:14;2.85;;;2.40;;
18879;SDS011;9572;52.378;13.404;2022-12-26T11:46:48;3.13;;;2.63;;
18879;SDS011;9572;52.378;13.404;2022-12-26T11:49:21;2.50;;;2.30;;
18879;SDS011;9572;52.378;13.404;2022-12-26T11:51:53;3.53;;;2.60;;
18879;SDS011;9572;52.378;13.404;2022-12-26T11:54:23;4.80;;;2.70;;
18879;SDS011;9572;52.378;13.404;2022-12-26T11:57:02;3.78;;;2.67;;
18879;SDS011;9572;52.378;13.404;2022-12-26T11:59:37;3.13;;;2.83;;
18879;SDS011;9572;52.378;13.404;2022-12-26T12:02:23;3.83;;;2.90;;
18879;SDS011;9572;52.378;13.404;2022-12-26T12:04:54;3.15;;;2.60;;
18879;SDS011;9572;52.378;13.404;2022-12-26T12:07:36;5.53;;;2.40;;
18879;SDS011;9572;52.378;13.404;2022-12-26T12:10:33;3.30;;;2.13;;
18879;SDS011;9572;52.378;13.404;2022-12-26T12:13:13;3.90;;;2.30;;
18879;SDS011;9572;52.378;13.404;2022-12-26T12:15:58;4.07;;;2.60;;
18879;SDS011;9572;52.378;13.404;2022-12-26T12:18:35;5.10;;;2.97;;
18879;SDS011;9572;52.378;13.404;2022-12-26T12:21:13;5.07;;;3.13;;
18879;SDS011;9572;52.378;13.404;2022-12-26T12:24:07;3.17;;;2.63;;
18879;SDS011;9572;52.378;13.404;2022-12-26T12:26:57;4.70;;;3.17;;
18879;SDS011;9572;52.378;13.404;2022-12-26T12:29:32;3.60;;;2.72;;
18879;SDS011;9572;52.378;13.404;2022-12-26T12:32:12;3.72;;;2.83;;
18879;SDS011;9572;52.378;13.404;2022-12-26T12:34:50;5.03;;;3.00;;
18879;SDS011;9572;52.378;13.404;2022-12-26T12:37:29;6.25;;;3.08;;
18879;SDS011;9572;52.378;13.404;2022-12-26T12:40:06;4.95;;;3.00;;
18879;SDS011;9572;52.378;13.404;2022-12-26T12:42:47;3.25;;;2.50;;
18879;SDS011;9572;52.378;13.404;2022-12-26T12:45:22;3.92;;;2.80;;
18879;SDS011;9572;52.378;13.404;2022-12-26T12:47:54;7.35;;;3.30;;
18879;SDS011;9572;52.378;13.404;2022-12-26T12:50:36;5.05;;;2.70;;
18879;SDS011;9572;52.378;13.404;2022-12-26T12:53:09;2.70;;;2.50;;
18879;SDS011;9572;52.378;13.404;2022-12-26T12:55:50;4.35;;;2.50;;
18879;SDS011;9572;52.378;13.404;2022-12-26T12:58:26;3.08;;;2.38;;
18879;SDS011;9572;52.378;13.404;2022-12-26T13:01:04;4.88;;;2.80;;
18879;SDS011;9572;52.378;13.404;2022-12-26T13:03:38;3.22;;;2.55;;
18879;SDS011;9572;52.378;13.404;2022-12-26T13:06:11;3.22;;;2.83;;
18879;SDS011;9572;52.378;13.404;2022-12-26T13:08:42;5.28;;;3.15;;
18879;SDS011;9572;52.378;13.404;2022-12-26T13:11:14;4.40;;;3.08;;
18879;SDS011;9572;52.378;13.404;2022-12-26T13:13:55;3.33;;;2.92;;
18879;SDS011;9572;52.378;13.404;2022-12-26T13:16:26;3.45;;;3.15;;
18879;SDS011;9572;52.378;13.404;2022-12-26T13:18:57;5.50;;;2.90;;
18879;SDS011;9572;52.378;13.404;2022-12-26T13:21:25;3.55;;;2.65;;
18879;SDS011;9572;52.378;13.404;2022-12-26T13:23:55;4.10;;;3.03;;
18879;SDS011;9572;52.378;13.404;2022-12-26T13:26:46;5.05;;;2.90;;
18879;SDS011;9572;52.378;13.404;2022-12-26T13:29:18;7.03;;;3.00;;
18879;SDS011;9572;52.378;13.404;2022-12-26T13:31:58;3.88;;;2.70;;
18879;SDS011;9572;52.378;13.404;2022-12-26T13:34:28;3.35;;;2.70;;
18879;SDS011;9572;52.378;13.404;2022-12-26T13:36:56;4.10;;;2.92;;
18879;SDS011;9572;52.378;13.404;2022-12-26T13:54:09;4.22;;;2.95;;
18879;SDS011;9572;52.378;13.404;2022-12-26T14:00:04;9.30;;;5.32;;
18879;SDS011;9572;52.378;13.404;2022-12-26T14:05:56;3.38;;;3.05;;
18879;SDS011;9572;52.378;13.404;2022-12-26T14:09:03;4.03;;;3.20;;
18879;SDS011;9572;52.378;13.404;2022-12-26T14:18:15;4.57;;;2.95;;
18879;SDS011;9572;52.378;13.404;2022-12-26T14:20:56;3.15;;;2.80;;
18879;SDS011;9572;52.378;13.404;2022-12-26T14:23:39;6.60;;;3.60;;
18879;SDS011;9572;52.378;13.404;2022-12-26T14:26:14;5.15;;;3.50;;
18879;SDS011;9572;52.378;13.404;2022-12-26T14:28:55;3.60;;;3.30;;
18879;SDS011;9572;52.378;13.404;2022-12-26T14:31:30;3.33;;;2.90;;
18879;SDS011;9572;52.378;13.404;2022-12-26T14:34:09;4.03;;;3.03;;
18879;SDS011;9572;52.378;13.404;2022-12-26T14:36:43;5.47;;;3.50;;
18879;SDS011;9572;52.378;13.404;2022-12-26T14:39:20;3.08;;;2.60;;
18879;SDS011;9572;52.378;13.404;2022-12-26T14:42:14;3.93;;;3.10;;
18879;SDS011;9572;52.378;13.404;2022-12-26T14:45:02;3.67;;;2.73;;
18879;SDS011;9572;52.378;13.404;2022-12-26T14:47:39;6.18;;;2.78;;
18879;SDS011;9572;52.378;13.404;2022-12-26T14:55:57;4.20;;;2.97;;
18879;SDS011;9572;52.378;13.404;2022-12-26T14:58:27;3.20;;;2.87;;
18879;SDS011;9572;52.378;13.404;2022-12-26T15:04:04;6.00;;;3.47;;
18879;SDS011;9572;52.378;13.404;2022-12-26T15:06:45;6.20;;;3.20;;
18879;SDS011;9572;52.378;13.404;2022-12-26T15:12:19;5.83;;;3.13;;
18879;SDS011;9572;52.378;13.404;2022-12-26T15:15:23;7.13;;;3.23;;
18879;SDS011;9572;52.378;13.404;2022-12-26T15:18:04;7.22;;;3.88;;
18879;SDS011;9572;52.378;13.404;2022-12-26T15:20:57;4.10;;;3.43;;
18879;SDS011;9572;52.378;13.404;2022-12-26T15:30:09;5.75;;;3.85;;
18879;SDS011;9572;52.378;13.404;2022-12-26T15:32:50;5.73;;;4.10;;
18879;SDS011;9572;52.378;13.404;2022-12-26T15:35:26;6.20;;;3.97;;
18879;SDS011;9572;52.378;13.404;2022-12-26T15:38:06;7.78;;;4.30;;
18879;SDS011;9572;52.378;13.404;2022-12-26T15:40:43;6.47;;;4.13;;
18879;SDS011;9572;52.378;13.404;2022-12-26T15:43:38;5.40;;;3.97;;
18879;SDS011;9572;52.378;13.404;2022-12-26T15:46:23;12.35;;;7.22;;
18879;SDS011;9572;52.378;13.404;2022-12-26T15:49:01;6.97;;;3.80;;
18879;SDS011;9572;52.378;13.404;2022-12-26T15:51:46;4.03;;;3.33;;
18879;SDS011;9572;52.378;13.404;2022-12-26T15:54:25;6.73;;;4.33;;
18879;SDS011;9572;52.378;13.404;2022-12-26T15:57:12;7.17;;;3.80;;
18879;SDS011;9572;52.378;13.404;2022-12-26T15:59:47;6.50;;;3.63;;
18879;SDS011;9572;52.378;13.404;2022-12-26T16:02:37;3.80;;;2.67;;
18879;SDS011;9572;52.378;13.404;2022-12-26T16:05:30;6.30;;;3.50;;
18879;SDS011;9572;52.378;13.404;2022-12-26T16:08:14;5.43;;;3.00;;
18879;SDS011;9572;52.378;13.404;2022-12-26T16:11:10;4.27;;;2.53;;
18879;SDS011;9572;52.378;13.404;2022-12-26T16:13:47;2.83;;;2.30;;
18879;SDS011;9572;52.378;13.404;2022-12-26T16:16:23;3.30;;;2.30;;
18879;SDS011;9572;52.378;13.404;2022-12-26T16:18:52;6.07;;;2.00;;
18879;SDS011;9572;52.378;13.404;2022-12-26T16:21:19;3.03;;;2.00;;
18879;SDS011;9572;52.378;13.404;2022-12-26T16:24:06;2.57;;;1.60;;
18879;SDS011;9572;52.378;13.404;2022-12-26T16:26:38;1.53;;;1.43;;